Terminal Aerodrome Forecast
Issued by NWS Huntsville, AL

Home | Current Version | Previous Version | Text Only | Print | Product List | Glossary On
Versions: 1 2 3 4 5 6 7 8 9 10 11 12 13 14 15 16 17 18 19 20 21 22 23 24 25 26 27 28 29 30 31 32
000
FTUS44 KHUN 222320
TAFMSL
TAF
KMSL 222320Z 2300/2324 05006KT P6SM BKN250
     FM230900 09006KT P6SM BKN250
     FM231300 13008KT P6SM SCT025 BKN040
     FM231600 13010G16KT P6SM BKN050=

USA.gov is the U.S. government's official web portal to all federal, state and local government web resources and services.